createdAt,value
2023-04-17T00:01:17.453Z,20.17
2023-04-17T00:03:44.670Z,18.85
2023-04-17T00:06:13.975Z,19.20
2023-04-17T00:08:40.656Z,18.00
2023-04-17T00:11:08.858Z,18.80
2023-04-17T00:13:36.306Z,18.67
2023-04-17T00:16:03.145Z,18.65
2023-04-17T00:18:29.682Z,18.55
2023-04-17T00:20:56.559Z,19.30
2023-04-17T00:23:23.020Z,20.23
2023-04-17T00:25:49.453Z,19.55
2023-04-17T00:28:15.951Z,18.75
2023-04-17T00:30:42.287Z,19.27
2023-04-17T00:33:08.662Z,20.27
2023-04-17T00:35:35.028Z,20.00
2023-04-17T00:38:01.437Z,20.08
2023-04-17T00:40:27.856Z,18.88
2023-04-17T00:42:59.856Z,20.25
2023-04-17T00:45:26.362Z,19.30
2023-04-17T00:47:53.633Z,20.02
2023-04-17T00:50:20.048Z,19.90
2023-04-17T00:52:47.373Z,19.42
2023-04-17T00:55:14.986Z,18.38
2023-04-17T00:57:42.415Z,19.95
2023-04-17T01:00:10.222Z,20.20
2023-04-17T01:02:37.862Z,18.85
2023-04-17T01:05:04.831Z,18.40
2023-04-17T01:07:31.433Z,19.40
2023-04-17T01:09:58.993Z,19.13
2023-04-17T01:12:25.807Z,18.30
2023-04-17T01:14:53.587Z,18.83
2023-04-17T01:17:20.430Z,19.17
2023-04-17T01:19:47.656Z,19.00
2023-04-17T01:22:16.336Z,19.42
2023-04-17T01:24:42.932Z,19.13
2023-04-17T01:27:09.387Z,18.58
2023-04-17T01:29:35.863Z,20.20
2023-04-17T01:32:02.308Z,19.65
2023-04-17T01:34:28.846Z,18.88
2023-04-17T01:36:55.329Z,19.27
2023-04-17T01:39:21.732Z,19.85
2023-04-17T01:41:48.262Z,19.92
2023-04-17T01:44:14.771Z,20.27
2023-04-17T01:46:41.287Z,19.45
2023-04-17T01:49:07.854Z,19.33
2023-04-17T01:51:34.298Z,20.42
2023-04-17T01:54:00.741Z,19.52
2023-04-17T01:56:27.195Z,19.63
2023-04-17T01:58:54.219Z,19.98
2023-04-17T02:01:20.718Z,20.50
2023-04-17T02:03:47.299Z,19.58
2023-04-17T02:06:15.238Z,20.73
2023-04-17T02:08:41.924Z,20.05
2023-04-17T02:11:09.985Z,19.75
2023-04-17T02:13:36.504Z,20.00
2023-04-17T02:16:03.016Z,20.52
2023-04-17T02:18:29.512Z,20.55
2023-04-17T02:20:55.912Z,20.35
2023-04-17T02:23:22.358Z,20.23
2023-04-17T02:25:48.732Z,18.38
2023-04-17T02:28:15.614Z,19.92
2023-04-17T02:30:42.078Z,19.45
2023-04-17T02:33:08.826Z,19.02
2023-04-17T02:35:35.346Z,19.35
2023-04-17T02:38:01.954Z,19.63
2023-04-17T02:40:28.309Z,20.02
2023-04-17T02:42:54.629Z,19.60
2023-04-17T02:45:21.056Z,19.17
2023-04-17T02:47:48.762Z,20.27
2023-04-17T02:50:15.425Z,21.55
2023-04-17T02:52:41.801Z,19.98
2023-04-17T02:55:09.558Z,20.30
2023-04-17T02:57:36.005Z,20.40
2023-04-17T03:00:05.070Z,19.15
2023-04-17T03:02:32.004Z,19.83
2023-04-17T03:05:02.012Z,20.67
2023-04-17T03:07:28.516Z,19.33
2023-04-17T03:09:57.417Z,20.98
2023-04-17T03:12:23.813Z,19.23
2023-04-17T03:14:50.905Z,19.67
2023-04-17T03:17:18.254Z,19.67
2023-04-17T03:19:44.709Z,20.88
2023-04-17T03:22:13.303Z,20.33
2023-04-17T03:24:41.175Z,21.08
2023-04-17T03:27:07.616Z,20.92
2023-04-17T03:29:34.047Z,21.85
2023-04-17T03:32:00.558Z,20.65
2023-04-17T03:34:28.227Z,20.60
2023-04-17T03:36:54.687Z,19.80
2023-04-17T03:39:21.352Z,21.60
2023-04-17T03:41:47.737Z,21.92
2023-04-17T03:44:14.167Z,21.73
2023-04-17T03:46:40.567Z,20.67
2023-04-17T03:49:06.891Z,22.20
2023-04-17T03:51:33.225Z,21.23
2023-04-17T03:53:59.771Z,21.02
2023-04-17T03:56:26.121Z,22.90
2023-04-17T03:58:52.534Z,21.63
2023-04-17T04:01:19.246Z,22.10
2023-04-17T04:03:45.861Z,22.30
2023-04-17T04:06:12.436Z,22.42
2023-04-17T04:08:38.833Z,21.35
2023-04-17T04:11:05.404Z,23.38
2023-04-17T04:13:31.745Z,22.73
2023-04-17T04:15:58.172Z,21.80
2023-04-17T04:18:24.555Z,21.55
2023-04-17T04:20:50.980Z,22.70
2023-04-17T04:23:17.326Z,21.15
2023-04-17T04:25:43.711Z,22.00
2023-04-17T04:28:10.453Z,21.63
2023-04-17T04:30:38.623Z,21.95
2023-04-17T04:33:05.693Z,22.75
2023-04-17T04:38:29.918Z,21.27
2023-04-17T04:41:06.105Z,22.67
2023-04-17T04:43:33.643Z,22.30
2023-04-17T04:46:00.446Z,22.70
2023-04-17T04:48:27.551Z,22.90
2023-04-17T04:50:54.575Z,24.10
2023-04-17T04:53:21.215Z,22.42
2023-04-17T04:55:47.662Z,23.10
2023-04-17T04:58:14.280Z,22.98
2023-04-17T05:00:40.841Z,22.42
2023-04-17T05:03:07.898Z,22.90
2023-04-17T05:05:35.898Z,23.92
2023-04-17T05:08:02.878Z,23.10
2023-04-17T05:10:29.387Z,22.20
2023-04-17T05:12:56.164Z,23.35
2023-04-17T05:15:22.730Z,23.92
2023-04-17T05:17:49.418Z,23.45
2023-04-17T05:20:16.253Z,22.73
2023-04-17T05:22:42.844Z,24.08
2023-04-17T05:25:09.566Z,23.67
2023-04-17T05:27:36.249Z,23.38
2023-04-17T05:30:02.992Z,23.60
2023-04-17T05:32:31.309Z,23.60
2023-04-17T05:34:57.950Z,23.48
2023-04-17T05:37:24.474Z,24.70
2023-04-17T05:39:50.976Z,23.95
2023-04-17T05:42:17.807Z,25.17
2023-04-17T05:44:44.331Z,25.73
2023-04-17T05:47:10.683Z,24.33
2023-04-17T05:49:37.108Z,24.38
2023-04-17T05:52:03.848Z,24.13
2023-04-17T05:54:30.387Z,25.95
2023-04-17T05:56:57.183Z,24.35
2023-04-17T05:59:23.731Z,23.95
2023-04-17T06:01:51.086Z,24.60
2023-04-17T06:04:18.674Z,24.58
2023-04-17T06:06:47.860Z,24.25
2023-04-17T06:09:14.705Z,23.73
2023-04-17T06:11:41.479Z,25.15
2023-04-17T06:14:08.087Z,25.52
2023-04-17T06:16:34.613Z,24.05
2023-04-17T06:19:01.165Z,25.08
2023-04-17T06:21:27.898Z,24.75
2023-04-17T06:23:54.466Z,25.23
2023-04-17T06:26:21.418Z,25.60
2023-04-17T06:28:48.069Z,24.77
2023-04-17T06:31:14.755Z,24.67
2023-04-17T06:33:41.386Z,24.70
2023-04-17T06:36:08.062Z,24.95
2023-04-17T06:38:34.659Z,24.27
2023-04-17T06:41:01.197Z,24.65
2023-04-17T06:43:27.666Z,25.42
2023-04-17T06:45:54.287Z,25.35
2023-04-17T06:48:21.055Z,23.80
2023-04-17T06:50:47.691Z,25.00
2023-04-17T06:53:20.104Z,25.58
2023-04-17T06:55:46.543Z,23.90
2023-04-17T06:58:13.430Z,24.63
2023-04-17T07:00:39.923Z,24.63
2023-04-17T07:03:06.748Z,25.02
2023-04-17T07:05:33.366Z,25.15
2023-04-17T07:07:59.858Z,26.33
2023-04-17T07:10:26.369Z,24.77
2023-04-17T07:12:52.936Z,24.92
2023-04-17T07:15:19.599Z,25.67
2023-04-17T07:17:46.373Z,24.65
2023-04-17T07:20:12.983Z,23.88
2023-04-17T07:22:39.978Z,23.77
2023-04-17T07:25:07.432Z,23.95
2023-04-17T07:27:34.088Z,24.33
2023-04-17T07:30:00.614Z,24.23
2023-04-17T07:32:28.101Z,23.45
2023-04-17T07:34:57.716Z,23.27
2023-04-17T07:37:24.314Z,23.17
2023-04-17T07:39:50.981Z,23.83
2023-04-17T07:42:17.584Z,23.48
2023-04-17T07:44:44.274Z,23.30
2023-04-17T07:47:11.103Z,22.60
2023-04-17T07:49:39.693Z,22.95
2023-04-17T07:52:06.349Z,22.65
2023-04-17T07:54:33.120Z,22.52
2023-04-17T07:57:03.454Z,23.67
2023-04-17T07:59:30.708Z,22.60
2023-04-17T08:01:57.711Z,22.08
2023-04-17T08:04:26.097Z,21.15
2023-04-17T08:06:52.876Z,20.35
2023-04-17T08:09:21.221Z,20.33
2023-04-17T08:11:56.874Z,20.98
2023-04-17T08:14:24.440Z,20.70
2023-04-17T08:16:51.581Z,20.42
2023-04-17T08:19:18.141Z,19.33
2023-04-17T08:21:50.158Z,19.90
2023-04-17T08:24:19.791Z,20.98
2023-04-17T08:26:47.330Z,19.80
2023-04-17T08:29:14.234Z,19.00
2023-04-17T08:31:41.265Z,19.02
2023-04-17T08:34:14.273Z,19.40
2023-04-17T08:36:42.699Z,19.27
2023-04-17T08:39:14.786Z,18.52
2023-04-17T08:41:54.986Z,18.63
2023-04-17T08:44:21.756Z,18.67
2023-04-17T08:46:49.745Z,18.83
2023-04-17T08:49:16.827Z,18.42
2023-04-17T08:51:43.451Z,18.70
2023-04-17T08:54:10.149Z,17.92
2023-04-17T08:56:54.433Z,17.92
2023-04-17T08:59:22.257Z,17.92
2023-04-17T09:02:06.782Z,17.58
2023-04-17T09:04:41.896Z,16.15
2023-04-17T09:07:13.528Z,18.15
2023-04-17T09:09:56.550Z,16.30
2023-04-17T09:12:24.974Z,15.80
2023-04-17T09:14:52.179Z,15.93
2023-04-17T09:17:20.308Z,16.55
2023-04-17T09:20:13.247Z,16.60
2023-04-17T09:22:41.056Z,15.70
2023-04-17T09:25:21.436Z,14.73
2023-04-17T09:27:48.038Z,14.05
2023-04-17T09:30:15.077Z,14.10
2023-04-17T09:32:41.796Z,11.70
2023-04-17T09:35:09.033Z,12.45
2023-04-17T09:37:55.642Z,11.40
2023-04-17T09:40:25.102Z,11.88
2023-04-17T09:42:54.661Z,11.48
2023-04-17T09:45:22.349Z,11.20
2023-04-17T09:47:48.938Z,11.20
2023-04-17T09:50:22.067Z,11.00
2023-04-17T09:52:52.470Z,11.38
2023-04-17T09:55:23.693Z,11.73
2023-04-17T09:57:54.793Z,12.70
2023-04-17T10:00:23.777Z,11.75
2023-04-17T10:02:54.143Z,11.82
2023-04-17T10:05:29.164Z,12.38
2023-04-17T10:07:56.550Z,12.45
2023-04-17T10:10:31.350Z,13.27
2023-04-17T10:13:01.205Z,13.63
2023-04-17T10:15:29.031Z,12.90
2023-04-17T10:17:58.738Z,12.63
2023-04-17T10:20:25.269Z,13.13
2023-04-17T10:22:56.719Z,13.25
2023-04-17T10:25:27.955Z,13.30
2023-04-17T10:27:54.673Z,13.07
2023-04-17T10:30:26.346Z,13.10
2023-04-17T10:33:21.894Z,12.80
2023-04-17T10:35:51.943Z,12.45
2023-04-17T10:38:39.049Z,13.02
2023-04-17T10:41:09.376Z,12.05
2023-04-17T10:43:40.526Z,13.27
2023-04-17T10:46:14.711Z,13.00
2023-04-17T10:48:50.602Z,12.50
2023-04-17T10:51:23.540Z,11.77
2023-04-17T10:53:51.670Z,12.68
2023-04-17T10:56:24.313Z,11.85
2023-04-17T10:59:00.695Z,11.85
2023-04-17T11:01:49.112Z,11.63
2023-04-17T11:04:23.572Z,11.27
2023-04-17T11:06:52.701Z,10.80
2023-04-17T11:09:27.825Z,10.25
2023-04-17T11:11:54.848Z,10.85
2023-04-17T11:14:23.321Z,11.30
2023-04-17T11:16:51.787Z,10.50
2023-04-17T11:19:23.185Z,10.55
2023-04-17T11:21:52.088Z,10.80
2023-04-17T11:24:29.619Z,10.55
2023-04-17T11:26:59.813Z,10.52
2023-04-17T11:29:27.684Z,10.10
2023-04-17T11:31:56.204Z,10.90
2023-04-17T11:34:24.888Z,10.65
2023-04-17T11:36:57.215Z,11.10
2023-04-17T11:39:25.582Z,9.98
2023-04-17T11:41:52.770Z,10.30
2023-04-17T11:44:23.585Z,10.05
2023-04-17T11:46:51.737Z,9.40
2023-04-17T11:49:39.027Z,9.57
2023-04-17T11:52:05.957Z,9.63
2023-04-17T11:54:37.211Z,9.05
2023-04-17T11:57:06.104Z,9.75
2023-04-17T11:59:34.184Z,9.93
2023-04-17T12:02:01.987Z,10.23
2023-04-17T12:04:30.105Z,9.15
2023-04-17T12:06:59.176Z,9.15
2023-04-17T12:09:31.306Z,8.75
2023-04-17T12:11:58.624Z,8.52
2023-04-17T12:14:26.447Z,9.25
2023-04-17T12:16:53.304Z,9.60
2023-04-17T12:19:19.880Z,9.70
2023-04-17T12:21:49.147Z,9.18
2023-04-17T12:24:18.162Z,9.25
2023-04-17T12:26:49.323Z,9.23
2023-04-17T12:29:16.659Z,9.02
2023-04-17T12:31:44.561Z,9.30
2023-04-17T12:34:11.309Z,9.13
2023-04-17T12:36:38.298Z,9.23
2023-04-17T12:39:04.726Z,8.40
2023-04-17T12:41:31.829Z,8.10
2023-04-17T12:44:01.606Z,7.57
2023-04-17T12:46:28.351Z,8.38
2023-04-17T12:48:58.367Z,7.80
2023-04-17T12:51:27.800Z,7.50
2023-04-17T12:53:55.188Z,7.00
2023-04-17T12:56:21.688Z,7.80
2023-04-17T12:58:48.150Z,6.65
2023-04-17T13:01:14.535Z,7.43
2023-04-17T13:03:41.410Z,7.93
2023-04-17T13:06:08.031Z,8.10
2023-04-17T13:08:34.486Z,7.40
2023-04-17T13:11:03.523Z,7.47
2023-04-17T13:13:29.943Z,7.32
2023-04-17T13:15:56.392Z,7.97
2023-04-17T13:18:22.855Z,6.88
2023-04-17T13:20:49.450Z,6.93
2023-04-17T13:23:15.876Z,7.68
2023-04-17T13:25:42.357Z,7.97
2023-04-17T13:28:08.859Z,7.43
2023-04-17T13:30:37.021Z,7.25
2023-04-17T13:33:03.833Z,6.60
2023-04-17T13:35:30.399Z,6.38
2023-04-17T13:38:00.775Z,6.72
2023-04-17T13:40:27.370Z,6.75
2023-04-17T13:42:54.500Z,6.53
2023-04-17T13:45:21.059Z,7.88
2023-04-17T13:47:47.701Z,6.63
2023-04-17T13:50:14.276Z,7.35
2023-04-17T13:52:40.697Z,7.35
2023-04-17T13:55:11.667Z,7.18
2023-04-17T13:57:38.244Z,7.35
2023-04-17T14:00:05.144Z,7.45
2023-04-17T14:02:31.875Z,8.05
2023-04-17T14:04:58.680Z,8.20
2023-04-17T14:07:27.263Z,8.65
2023-04-17T14:09:53.726Z,8.75
2023-04-17T14:12:21.680Z,7.55
2023-04-17T14:14:48.369Z,7.20
2023-04-17T14:17:14.991Z,7.78
2023-04-17T14:19:41.519Z,7.38
2023-04-17T14:22:08.150Z,7.53
2023-04-17T14:24:34.540Z,8.02
2023-04-17T14:27:02.111Z,8.10
2023-04-17T14:29:31.598Z,7.40
2023-04-17T14:31:58.141Z,6.85
2023-04-17T14:34:24.844Z,6.97
2023-04-17T14:36:51.702Z,7.32
2023-04-17T14:39:19.612Z,6.88
2023-04-17T14:41:46.189Z,6.22
2023-04-17T14:44:13.101Z,6.35
2023-04-17T14:46:39.993Z,5.82
2023-04-17T14:49:06.560Z,6.50
2023-04-17T14:51:33.009Z,6.30
2023-04-17T14:54:02.499Z,6.43
2023-04-17T14:56:28.953Z,5.60
2023-04-17T14:58:55.406Z,6.18
2023-04-17T15:01:21.938Z,5.53
2023-04-17T15:03:49.176Z,5.85
2023-04-17T15:06:16.609Z,6.10
2023-04-17T15:08:43.245Z,6.78
2023-04-17T15:11:09.759Z,6.60
2023-04-17T15:13:36.304Z,6.38
2023-04-17T15:16:03.393Z,6.07
2023-04-17T15:18:29.885Z,7.18
2023-04-17T15:20:56.402Z,7.00
2023-04-17T15:23:23.021Z,7.45
2023-04-17T15:25:49.500Z,7.55
2023-04-17T15:28:16.008Z,7.10
2023-04-17T15:30:42.662Z,6.75
2023-04-17T15:33:10.227Z,7.03
2023-04-17T15:35:37.387Z,8.05
2023-04-17T15:38:05.180Z,7.07
2023-04-17T15:40:31.654Z,7.75
2023-04-17T15:42:58.244Z,7.20
2023-04-17T15:45:25.779Z,7.55
2023-04-17T15:47:53.523Z,6.47
2023-04-17T15:50:21.070Z,6.97
2023-04-17T15:52:47.981Z,6.30
2023-04-17T15:55:14.992Z,6.60
2023-04-17T15:57:43.074Z,7.40
2023-04-17T16:00:10.431Z,7.60
2023-04-17T16:02:37.183Z,7.30
2023-04-17T16:05:04.257Z,6.85
2023-04-17T16:07:31.545Z,7.47
2023-04-17T16:09:58.271Z,7.20
2023-04-17T16:12:24.707Z,7.32
2023-04-17T16:14:51.244Z,7.40
2023-04-17T16:17:17.801Z,7.43
2023-04-17T16:19:44.197Z,7.70
2023-04-17T16:22:10.631Z,6.97
2023-04-17T16:24:37.044Z,7.53
2023-04-17T16:27:04.111Z,7.47
2023-04-17T16:29:30.664Z,7.90
2023-04-17T16:31:57.345Z,7.82
2023-04-17T16:34:23.800Z,8.02
2023-04-17T16:36:50.261Z,7.78
2023-04-17T16:39:16.824Z,7.85
2023-04-17T16:41:43.672Z,7.88
2023-04-17T16:44:10.398Z,8.48
2023-04-17T16:46:52.149Z,7.75
2023-04-17T16:49:23.617Z,8.30
2023-04-17T16:51:50.356Z,7.97
2023-04-17T16:54:18.751Z,8.73
2023-04-17T16:56:46.754Z,7.97
2023-04-17T16:59:13.683Z,8.65
2023-04-17T17:01:40.434Z,8.40
2023-04-17T17:04:07.202Z,8.73
2023-04-17T17:06:33.946Z,8.10
2023-04-17T17:09:00.724Z,8.02
2023-04-17T17:11:27.244Z,7.65
2023-04-17T17:13:53.819Z,7.60
2023-04-17T17:16:23.270Z,8.32
2023-04-17T17:18:49.836Z,8.02
2023-04-17T17:21:16.520Z,9.15
2023-04-17T17:23:43.035Z,9.35
2023-04-17T17:26:09.670Z,8.90
2023-04-17T17:28:36.566Z,8.93
2023-04-17T17:31:07.431Z,9.07
2023-04-17T17:33:35.157Z,8.60
2023-04-17T17:36:02.881Z,8.05
2023-04-17T17:38:30.806Z,8.98
2023-04-17T17:40:57.484Z,8.52
2023-04-17T17:43:24.519Z,8.38
2023-04-17T17:45:53.519Z,8.77
2023-04-17T17:48:20.513Z,9.00
2023-04-17T17:50:47.971Z,8.35
2023-04-17T17:53:17.525Z,8.15
2023-04-17T17:55:53.854Z,7.65
2023-04-17T17:58:21.761Z,8.07
2023-04-17T18:00:49.586Z,8.52
2023-04-17T18:03:17.265Z,8.10
2023-04-17T18:05:45.002Z,7.65
2023-04-17T18:08:11.632Z,7.43
2023-04-17T18:10:38.948Z,7.05
2023-04-17T18:13:06.099Z,8.02
2023-04-17T18:15:32.802Z,8.15
2023-04-17T18:17:59.510Z,8.48
2023-04-17T18:20:26.189Z,8.02
2023-04-17T18:22:52.779Z,7.80
2023-04-17T18:25:19.462Z,7.43
2023-04-17T18:27:45.963Z,7.90
2023-04-17T18:30:13.016Z,8.05
2023-04-17T18:32:39.554Z,8.00
2023-04-17T18:35:06.615Z,7.55
2023-04-17T18:37:33.237Z,6.75
2023-04-17T18:39:59.792Z,6.80
2023-04-17T18:42:26.248Z,6.50
2023-04-17T18:44:52.710Z,6.00
2023-04-17T18:47:19.231Z,6.80
2023-04-17T18:49:45.783Z,6.63
2023-04-17T18:52:12.356Z,5.97
2023-04-17T18:54:38.918Z,6.43
2023-04-17T18:57:05.398Z,6.63
2023-04-17T18:59:31.969Z,5.93
2023-04-17T19:01:58.513Z,6.20
2023-04-17T19:04:25.069Z,6.60
2023-04-17T19:06:51.628Z,6.18
2023-04-17T19:09:18.179Z,7.35
2023-04-17T19:11:44.751Z,6.22
2023-04-17T19:14:11.538Z,6.72
2023-04-17T19:16:38.442Z,6.82
2023-04-17T19:19:05.730Z,6.38
2023-04-17T19:21:32.851Z,6.90
2023-04-17T19:23:59.531Z,6.13
2023-04-17T19:26:26.095Z,6.43
2023-04-17T19:28:52.674Z,6.57
2023-04-17T19:31:19.284Z,6.25
2023-04-17T19:33:45.796Z,7.22
2023-04-17T19:36:12.270Z,6.95
2023-04-17T19:38:38.824Z,6.30
2023-04-17T19:41:23.550Z,6.10
2023-04-17T19:43:51.495Z,6.43
2023-04-17T19:46:19.437Z,5.95
2023-04-17T19:48:47.048Z,6.72
2023-04-17T19:51:14.876Z,6.30
2023-04-17T19:53:43.823Z,6.50
2023-04-17T19:56:10.911Z,6.03
2023-04-17T19:58:38.413Z,6.15
2023-04-17T20:01:05.184Z,6.47
2023-04-17T20:03:32.691Z,6.03
2023-04-17T20:05:59.821Z,6.15
2023-04-17T20:08:26.700Z,6.82
2023-04-17T20:10:53.774Z,6.18
2023-04-17T20:13:20.368Z,6.03
2023-04-17T20:15:46.992Z,6.05
2023-04-17T20:18:13.665Z,6.28
2023-04-17T20:20:40.379Z,5.30
2023-04-17T20:23:07.072Z,5.50
2023-04-17T20:25:33.599Z,5.93
2023-04-17T20:28:02.838Z,5.50
2023-04-17T20:30:29.634Z,6.35
2023-04-17T20:32:56.696Z,5.53
2023-04-17T20:35:24.703Z,4.88
2023-04-17T20:37:52.147Z,5.55
2023-04-17T20:40:19.698Z,5.65
2023-04-17T20:42:47.470Z,5.45
2023-04-17T20:45:14.310Z,6.03
2023-04-17T20:47:56.054Z,5.70
2023-04-17T20:50:23.705Z,5.93
2023-04-17T20:52:50.388Z,5.13
2023-04-17T20:55:18.763Z,5.80
2023-04-17T20:57:45.983Z,5.80
2023-04-17T21:00:13.037Z,5.50
2023-04-17T21:02:39.879Z,5.85
2023-04-17T21:05:07.713Z,6.03
2023-04-17T21:07:34.720Z,5.97
2023-04-17T21:10:02.016Z,6.20
2023-04-17T21:12:28.771Z,7.13
2023-04-17T21:14:55.274Z,6.13
2023-04-17T21:17:22.800Z,6.28
2023-04-17T21:19:49.485Z,6.35
2023-04-17T21:22:16.176Z,6.40
2023-04-17T21:24:42.868Z,6.22
2023-04-17T21:27:10.248Z,6.63
2023-04-17T21:29:36.896Z,6.03
2023-04-17T21:32:03.877Z,6.53
2023-04-17T21:34:30.556Z,6.63
2023-04-17T21:36:59.339Z,6.60
2023-04-17T21:39:25.962Z,7.90
2023-04-17T21:41:52.501Z,7.72
2023-04-17T21:44:19.134Z,7.30
2023-04-17T21:46:46.094Z,7.50
2023-04-17T21:49:13.014Z,7.32
2023-04-17T21:51:39.848Z,7.15
2023-04-17T21:54:06.494Z,6.90
2023-04-17T21:56:33.093Z,7.38
2023-04-17T21:58:59.638Z,7.15
2023-04-17T22:01:26.286Z,7.35
2023-04-17T22:03:53.120Z,7.63
2023-04-17T22:06:19.654Z,7.40
2023-04-17T22:08:46.353Z,7.50
2023-04-17T22:11:12.914Z,8.20
2023-04-17T22:13:39.484Z,7.20
2023-04-17T22:16:06.328Z,7.63
2023-04-17T22:18:32.893Z,6.82
2023-04-17T22:20:59.428Z,7.10
2023-04-17T22:23:26.026Z,6.95
2023-04-17T22:25:52.500Z,7.38
2023-04-17T22:28:19.197Z,6.95
2023-04-17T22:30:49.268Z,6.88
2023-04-17T22:33:15.780Z,7.95
2023-04-17T22:35:42.334Z,7.32
2023-04-17T22:38:08.877Z,7.07
2023-04-17T22:40:35.287Z,7.78
2023-04-17T22:43:01.606Z,7.88
2023-04-17T22:45:27.934Z,7.10
2023-04-17T22:47:54.287Z,7.00
2023-04-17T22:50:21.751Z,8.07
2023-04-17T22:52:48.115Z,7.18
2023-04-17T22:55:14.643Z,6.95
2023-04-17T22:57:41.016Z,7.50
2023-04-17T23:00:11.423Z,8.00
2023-04-17T23:02:37.920Z,6.93
2023-04-17T23:05:05.331Z,7.25
2023-04-17T23:07:32.379Z,6.93
2023-04-17T23:09:58.788Z,7.40
2023-04-17T23:12:25.184Z,7.68
2023-04-17T23:14:51.490Z,7.20
2023-04-17T23:17:17.877Z,7.20
2023-04-17T23:19:44.192Z,7.50
2023-04-17T23:22:10.728Z,7.25
2023-04-17T23:24:37.276Z,7.32
2023-04-17T23:27:03.728Z,6.95
2023-04-17T23:29:30.242Z,7.38
2023-04-17T23:31:56.536Z,7.95
2023-04-17T23:34:22.902Z,7.50
2023-04-17T23:36:49.208Z,7.22
2023-04-17T23:39:15.583Z,6.95
2023-04-17T23:41:42.739Z,7.68
2023-04-17T23:44:09.686Z,7.10
2023-04-17T23:46:36.859Z,8.13
2023-04-17T23:49:03.705Z,7.82
2023-04-17T23:51:30.325Z,7.88
2023-04-17T23:53:59.289Z,7.50
2023-04-17T23:56:26.009Z,8.40
2023-04-17T23:58:52.643Z,7.38
